createdAt,value
2019-05-22T00:00:41.187Z,84.81
2019-05-22T00:03:26.294Z,84.82
2019-05-22T00:05:56.433Z,84.85
2019-05-22T00:08:25.306Z,84.90
2019-05-22T00:10:55.847Z,84.67
2019-05-22T00:13:25.949Z,84.59
2019-05-22T00:15:56.474Z,84.56
2019-05-22T00:18:26.904Z,84.49
2019-05-22T00:20:55.818Z,84.56
2019-05-22T00:23:25.934Z,84.75
2019-05-22T00:25:54.392Z,84.74
2019-05-22T00:28:24.413Z,84.64
2019-05-22T00:30:52.982Z,84.73
2019-05-22T00:33:22.167Z,84.47
2019-05-22T00:35:52.713Z,84.49
2019-05-22T00:38:22.660Z,84.46
2019-05-22T00:40:57.276Z,84.61
2019-05-22T00:43:30.497Z,84.81
2019-05-22T00:45:59.875Z,84.90
2019-05-22T00:48:29.859Z,84.87
2019-05-22T00:51:15.060Z,84.63
2019-05-22T00:54:00.505Z,84.72
2019-05-22T00:56:37.010Z,84.60
2019-05-22T00:59:19.567Z,84.52
2019-05-22T01:02:05.325Z,84.68
2019-05-22T01:04:38.848Z,84.56
2019-05-22T01:07:12.804Z,84.47
2019-05-22T01:09:45.715Z,84.59
2019-05-22T01:12:30.813Z,84.69
2019-05-22T01:15:03.721Z,84.86
2019-05-22T01:17:35.801Z,84.51
2019-05-22T01:20:06.951Z,84.22
2019-05-22T01:22:37.195Z,84.13
2019-05-22T01:25:06.813Z,84.17
2019-05-22T01:27:36.713Z,84.14
2019-05-22T01:30:08.423Z,83.86
2019-05-22T01:32:47.838Z,83.81
2019-05-22T01:35:16.629Z,83.65
2019-05-22T01:37:45.007Z,83.94
2019-05-22T01:40:20.859Z,84.08
2019-05-22T01:42:51.894Z,83.87
2019-05-22T01:45:21.948Z,83.90
2019-05-22T01:47:57.328Z,83.88
2019-05-22T01:50:41.399Z,84.09
2019-05-22T01:53:11.550Z,83.98
2019-05-22T01:55:41.636Z,83.97
2019-05-22T01:58:12.535Z,83.88
2019-05-22T02:00:42.149Z,83.74
2019-05-22T02:03:11.572Z,83.74
2019-05-22T02:05:41.134Z,83.51
2019-05-22T02:08:10.635Z,83.25
2019-05-22T02:10:42.564Z,83.18
2019-05-22T02:13:11.564Z,83.77
2019-05-22T02:15:41.542Z,83.74
2019-05-22T02:18:17.782Z,83.81
2019-05-22T02:20:46.796Z,83.97
2019-05-22T02:23:17.008Z,83.95
2019-05-22T02:25:45.649Z,83.93
2019-05-22T02:28:14.836Z,83.58
2019-05-22T02:30:44.018Z,83.50
2019-05-22T02:33:14.169Z,83.48
2019-05-22T02:35:42.962Z,83.61
2019-05-22T02:38:12.308Z,83.74
2019-05-22T02:40:42.137Z,83.84
2019-05-22T02:43:11.222Z,83.83
2019-05-22T02:45:39.784Z,83.86
2019-05-22T02:48:10.488Z,83.84
2019-05-22T02:50:39.326Z,83.89
2019-05-22T02:53:10.452Z,83.83
2019-05-22T02:55:40.584Z,83.79
2019-05-22T02:58:10.617Z,83.83
2019-05-22T03:01:00.430Z,83.94
2019-05-22T03:03:29.128Z,83.69
2019-05-22T03:05:57.701Z,83.76
2019-05-22T03:08:29.242Z,83.82
2019-05-22T03:10:57.700Z,83.62
2019-05-22T03:13:57.660Z,83.61
2019-05-22T03:16:28.163Z,83.62
2019-05-22T03:19:08.269Z,83.63
2019-05-22T03:21:28.585Z,83.54
2019-05-22T03:23:57.098Z,83.55
2019-05-22T03:26:40.596Z,83.63
2019-05-22T03:29:09.614Z,83.67
2019-05-22T03:31:38.483Z,83.41
2019-05-22T03:34:06.978Z,83.43
2019-05-22T03:36:35.727Z,83.47
2019-05-22T03:39:05.968Z,83.41
2019-05-22T03:41:35.798Z,83.40
2019-05-22T03:44:04.877Z,83.39
2019-05-22T03:46:36.997Z,83.22
2019-05-22T03:49:05.481Z,83.39
2019-05-22T03:51:34.999Z,83.50
2019-05-22T03:54:03.611Z,83.61
2019-05-22T03:56:32.645Z,83.66
2019-05-22T03:59:02.569Z,83.58
2019-05-22T04:01:32.670Z,83.07
2019-05-22T04:04:02.585Z,82.90
2019-05-22T04:06:32.753Z,82.93
2019-05-22T04:09:05.899Z,82.83
2019-05-22T04:11:38.649Z,82.94
2019-05-22T04:14:07.266Z,82.89
2019-05-22T04:16:35.914Z,82.67
2019-05-22T04:19:05.110Z,83.04
2019-05-22T04:21:33.402Z,82.78
2019-05-22T04:24:02.777Z,82.96
2019-05-22T04:26:32.861Z,82.63
2019-05-22T04:29:01.790Z,82.72
2019-05-22T04:31:49.805Z,82.73
2019-05-22T04:34:20.757Z,82.99
2019-05-22T04:36:50.170Z,82.99
2019-05-22T04:39:24.260Z,83.09
2019-05-22T04:41:53.919Z,83.08
2019-05-22T04:44:22.569Z,83.28
2019-05-22T04:46:51.065Z,83.50
2019-05-22T04:49:19.519Z,83.39
2019-05-22T04:51:48.035Z,83.46
2019-05-22T04:54:18.025Z,83.22
2019-05-22T04:56:47.361Z,83.14
2019-05-22T04:59:16.357Z,82.86
2019-05-22T05:01:45.833Z,82.53
2019-05-22T05:04:15.076Z,82.19
2019-05-22T05:06:45.550Z,82.00
2019-05-22T05:09:15.755Z,82.01
2019-05-22T05:11:44.492Z,81.82
2019-05-22T05:14:12.909Z,81.76
2019-05-22T05:16:42.425Z,81.86
2019-05-22T05:19:10.821Z,82.07
2019-05-22T05:21:39.234Z,82.29
2019-05-22T05:24:07.632Z,82.32
2019-05-22T05:26:38.091Z,82.20
2019-05-22T05:29:07.834Z,82.01
2019-05-22T05:31:36.335Z,82.13
2019-05-22T05:34:19.859Z,81.97
2019-05-22T05:36:48.684Z,81.99
2019-05-22T05:39:40.122Z,82.05
2019-05-22T05:42:08.483Z,82.33
2019-05-22T05:44:37.669Z,82.14
2019-05-22T05:47:07.288Z,81.89
2019-05-22T05:49:35.915Z,82.10
2019-05-22T05:52:07.354Z,82.04
2019-05-22T05:54:36.936Z,81.96
2019-05-22T05:57:31.437Z,82.32
2019-05-22T05:59:59.912Z,81.97
2019-05-22T06:02:28.349Z,82.31
2019-05-22T06:04:57.000Z,82.16
2019-05-22T06:07:25.463Z,82.03
2019-05-22T06:09:57.154Z,81.76
2019-05-22T06:12:25.538Z,81.71
2019-05-22T06:14:53.864Z,81.08
2019-05-22T06:17:32.634Z,80.83
2019-05-22T06:20:09.867Z,80.87
2019-05-22T06:22:38.779Z,80.32
2019-05-22T06:25:08.675Z,79.37
2019-05-22T06:27:41.741Z,78.62
2019-05-22T06:30:14.225Z,78.60
2019-05-22T06:33:12.207Z,78.50
2019-05-22T06:35:42.374Z,77.65
2019-05-22T06:38:38.967Z,77.72
2019-05-22T06:41:07.332Z,77.76
2019-05-22T06:43:38.906Z,77.27
2019-05-22T06:46:07.488Z,76.94
2019-05-22T06:48:35.960Z,76.61
2019-05-22T06:51:18.540Z,76.46
2019-05-22T06:53:34.663Z,76.34
2019-05-22T06:56:03.054Z,76.03
2019-05-22T06:58:31.637Z,76.12
2019-05-22T07:01:00.161Z,76.31
2019-05-22T07:03:28.544Z,76.40
2019-05-22T07:05:57.233Z,75.88
2019-05-22T07:08:25.775Z,75.98
2019-05-22T07:10:54.469Z,75.99
2019-05-22T07:13:23.669Z,75.25
2019-05-22T07:15:52.333Z,75.20
2019-05-22T07:18:23.265Z,74.68
2019-05-22T07:20:53.138Z,74.29
2019-05-22T07:23:23.507Z,73.23
2019-05-22T07:25:52.898Z,73.43
2019-05-22T07:28:23.339Z,71.22
2019-05-22T07:30:52.661Z,71.22
2019-05-22T07:33:22.140Z,71.18
2019-05-22T07:36:08.617Z,71.12
2019-05-22T07:38:21.756Z,70.53
2019-05-22T07:40:51.670Z,70.64
2019-05-22T07:43:21.429Z,70.60
2019-05-22T07:45:51.847Z,69.81
2019-05-22T07:48:21.240Z,69.29
2019-05-22T07:50:50.121Z,68.71
2019-05-22T07:53:18.592Z,68.53
2019-05-22T07:55:47.790Z,69.09
2019-05-22T07:58:17.752Z,68.43
2019-05-22T08:00:55.072Z,67.70
2019-05-22T08:03:25.287Z,67.79
2019-05-22T08:05:56.232Z,67.49
2019-05-22T08:08:25.622Z,67.03
2019-05-22T08:10:55.249Z,67.18
2019-05-22T08:13:24.405Z,66.21
2019-05-22T08:15:52.693Z,66.00
2019-05-22T08:18:21.876Z,65.57
2019-05-22T08:20:50.465Z,64.97
2019-05-22T08:23:19.850Z,64.62
2019-05-22T08:25:48.443Z,63.87
2019-05-22T08:28:17.986Z,62.60
2019-05-22T08:30:46.364Z,60.65
2019-05-22T08:33:17.230Z,60.36
2019-05-22T08:35:45.867Z,61.18
2019-05-22T08:38:14.795Z,60.71
2019-05-22T08:40:43.456Z,60.49
2019-05-22T08:43:12.714Z,60.52
2019-05-22T08:45:41.040Z,59.81
2019-05-22T08:48:09.795Z,58.28
2019-05-22T08:50:41.722Z,58.03
2019-05-22T08:53:13.508Z,57.89
2019-05-22T08:55:42.312Z,57.72
2019-05-22T08:58:11.481Z,56.94
2019-05-22T09:00:39.909Z,56.34
2019-05-22T09:03:09.621Z,56.97
2019-05-22T09:05:38.193Z,56.63
2019-05-22T09:08:06.637Z,55.23
2019-05-22T09:10:35.403Z,56.38
2019-05-22T09:13:04.195Z,56.24
2019-05-22T09:15:33.558Z,56.39
2019-05-22T09:18:02.809Z,56.47
2019-05-22T09:20:47.752Z,56.38
2019-05-22T09:23:01.931Z,55.07
2019-05-22T09:25:32.050Z,54.28
2019-05-22T09:28:00.697Z,54.22
2019-05-22T09:30:29.869Z,53.46
2019-05-22T09:32:58.844Z,53.30
2019-05-22T09:35:27.332Z,52.73
2019-05-22T09:37:57.114Z,52.82
2019-05-22T09:40:25.712Z,53.06
2019-05-22T09:42:54.317Z,52.62
2019-05-22T09:45:22.764Z,52.15
2019-05-22T09:47:51.428Z,51.26
2019-05-22T09:50:21.145Z,51.51
2019-05-22T09:52:57.780Z,50.59
2019-05-22T09:55:20.182Z,50.75
2019-05-22T09:57:48.780Z,51.22
2019-05-22T10:00:18.277Z,50.98
2019-05-22T10:02:46.860Z,50.50
2019-05-22T10:05:16.382Z,49.86
2019-05-22T10:07:59.809Z,49.42
2019-05-22T10:10:17.237Z,49.13
2019-05-22T10:12:45.560Z,49.42
2019-05-22T10:15:14.588Z,50.11
2019-05-22T10:17:49.319Z,48.11
2019-05-22T10:20:18.837Z,48.30
2019-05-22T10:22:47.465Z,48.69
2019-05-22T10:25:17.265Z,48.64
2019-05-22T10:27:47.589Z,48.81
2019-05-22T10:30:21.419Z,48.08
2019-05-22T10:32:50.157Z,48.56
2019-05-22T10:35:22.236Z,48.15
2019-05-22T10:37:50.823Z,47.90
2019-05-22T10:40:20.044Z,47.83
2019-05-22T10:42:48.654Z,47.10
2019-05-22T10:45:17.207Z,45.91
2019-05-22T10:47:45.911Z,46.32
2019-05-22T10:50:14.643Z,45.97
2019-05-22T10:52:43.443Z,45.33
2019-05-22T10:55:13.029Z,45.48
2019-05-22T10:57:42.651Z,45.42
2019-05-22T11:00:12.957Z,45.47
2019-05-22T11:02:41.885Z,44.67
2019-05-22T11:05:10.537Z,44.96
2019-05-22T11:07:39.049Z,45.03
2019-05-22T11:10:08.484Z,45.27
2019-05-22T11:12:36.917Z,45.81
2019-05-22T11:15:07.558Z,45.85
2019-05-22T11:17:36.001Z,45.66
2019-05-22T11:20:08.829Z,46.09
2019-05-22T11:22:37.986Z,45.50
2019-05-22T11:25:09.603Z,45.09
2019-05-22T11:27:38.962Z,45.61
2019-05-22T11:30:08.934Z,45.87
2019-05-22T11:32:37.461Z,45.05
2019-05-22T11:35:08.431Z,45.08
2019-05-22T11:37:37.571Z,45.02
2019-05-22T11:40:07.815Z,45.76
2019-05-22T11:42:38.086Z,45.76
2019-05-22T11:45:12.100Z,45.78
2019-05-22T11:47:41.956Z,45.12
2019-05-22T11:50:12.187Z,45.80
2019-05-22T11:52:41.805Z,46.17
2019-05-22T11:55:11.001Z,45.84
2019-05-22T11:57:40.155Z,45.85
2019-05-22T12:00:10.036Z,46.83
2019-05-22T12:02:39.976Z,46.16
2019-05-22T12:05:10.550Z,46.41
2019-05-22T12:07:43.515Z,45.63
2019-05-22T12:10:13.036Z,45.79
2019-05-22T12:12:41.690Z,44.95
2019-05-22T12:15:11.861Z,44.17
2019-05-22T12:17:40.355Z,45.02
2019-05-22T12:20:11.456Z,46.59
2019-05-22T12:22:40.433Z,45.76
2019-05-22T12:25:10.877Z,45.23
2019-05-22T12:27:39.217Z,45.63
2019-05-22T12:30:08.142Z,45.30
2019-05-22T12:32:38.066Z,44.80
2019-05-22T12:35:07.289Z,45.49
2019-05-22T12:37:36.186Z,44.89
2019-05-22T12:40:07.865Z,44.55
2019-05-22T12:42:36.351Z,44.93
2019-05-22T12:45:10.005Z,45.57
2019-05-22T12:47:38.630Z,45.22
2019-05-22T12:50:10.352Z,44.02
2019-05-22T12:52:38.867Z,43.70
2019-05-22T12:55:07.448Z,43.85
2019-05-22T12:57:35.784Z,43.27
2019-05-22T13:00:07.492Z,42.20
2019-05-22T13:02:36.873Z,41.87
2019-05-22T13:05:07.887Z,41.81
2019-05-22T13:07:36.362Z,40.72
2019-05-22T13:10:06.962Z,40.49
2019-05-22T13:12:35.650Z,40.47
2019-05-22T13:15:10.307Z,41.52
2019-05-22T13:17:37.078Z,42.07
2019-05-22T13:20:08.148Z,42.45
2019-05-22T13:22:38.087Z,42.06
2019-05-22T13:25:10.249Z,41.76
2019-05-22T13:27:39.669Z,40.97
2019-05-22T13:30:11.607Z,40.92
2019-05-22T13:32:41.781Z,40.80
2019-05-22T13:35:10.284Z,41.03
2019-05-22T13:37:40.040Z,41.10
2019-05-22T13:40:26.087Z,40.89
2019-05-22T13:42:39.732Z,40.48
2019-05-22T13:45:26.018Z,40.49
2019-05-22T13:47:39.009Z,39.42
2019-05-22T13:50:08.294Z,39.49
2019-05-22T13:52:37.951Z,39.55
2019-05-22T13:55:07.788Z,39.54
2019-05-22T13:57:36.681Z,39.50
2019-05-22T14:00:10.084Z,40.71
2019-05-22T14:02:38.982Z,40.88
2019-05-22T14:05:08.168Z,40.19
2019-05-22T14:07:36.594Z,39.89
2019-05-22T14:10:08.975Z,39.43
2019-05-22T14:12:37.258Z,39.68
2019-05-22T14:15:06.949Z,39.92
2019-05-22T14:17:35.459Z,40.14
2019-05-22T14:20:05.059Z,40.18
2019-05-22T14:22:33.405Z,40.37
2019-05-22T14:25:01.829Z,40.16
2019-05-22T14:27:30.216Z,40.01
2019-05-22T14:29:58.735Z,40.29
2019-05-22T14:32:29.853Z,40.40
2019-05-22T14:34:57.913Z,40.98
2019-05-22T14:37:26.975Z,41.29
2019-05-22T14:39:56.785Z,41.96
2019-05-22T14:42:25.296Z,41.19
2019-05-22T14:44:53.975Z,41.99
2019-05-22T14:47:22.847Z,41.01
2019-05-22T14:49:52.062Z,40.94
2019-05-22T14:52:20.928Z,41.26
2019-05-22T14:54:49.304Z,41.34
2019-05-22T14:57:17.912Z,40.49
2019-05-22T14:59:46.361Z,40.25
2019-05-22T15:02:15.513Z,40.28
2019-05-22T15:04:43.886Z,40.95
2019-05-22T15:07:12.343Z,40.96
2019-05-22T15:09:40.917Z,41.63
2019-05-22T15:12:09.418Z,42.61
2019-05-22T15:14:37.895Z,42.85
2019-05-22T15:17:07.006Z,43.71
2019-05-22T15:19:35.905Z,43.35
2019-05-22T15:22:05.345Z,43.28
2019-05-22T15:24:33.770Z,43.23
2019-05-22T15:27:03.405Z,43.00
2019-05-22T15:29:31.951Z,43.00
2019-05-22T15:32:00.448Z,43.18
2019-05-22T15:34:30.351Z,43.02
2019-05-22T15:36:59.301Z,42.41
2019-05-22T15:39:28.586Z,43.00
2019-05-22T15:41:57.620Z,42.83
2019-05-22T15:44:27.366Z,42.95
2019-05-22T15:46:55.937Z,42.66
2019-05-22T15:49:25.852Z,42.77
2019-05-22T15:51:54.258Z,43.48
2019-05-22T15:54:22.761Z,43.50
2019-05-22T15:56:51.111Z,43.68
2019-05-22T15:59:21.996Z,43.92
2019-05-22T16:01:51.252Z,43.93
2019-05-22T16:04:23.222Z,43.94
2019-05-22T16:06:52.371Z,43.43
2019-05-22T16:09:21.816Z,43.45
2019-05-22T16:11:52.417Z,43.37
2019-05-22T16:14:22.031Z,43.39
2019-05-22T16:16:51.458Z,43.48
2019-05-22T16:19:22.380Z,43.66
2019-05-22T16:21:53.378Z,43.45
2019-05-22T16:24:22.423Z,43.59
2019-05-22T16:26:52.637Z,43.60
2019-05-22T16:29:24.070Z,43.74
2019-05-22T16:31:53.899Z,43.46
2019-05-22T16:34:28.319Z,43.84
2019-05-22T16:36:55.674Z,43.78
2019-05-22T16:39:24.900Z,44.45
2019-05-22T16:41:53.987Z,44.38
2019-05-22T16:44:22.498Z,44.28
2019-05-22T16:46:51.739Z,44.56
2019-05-22T16:49:20.806Z,45.04
2019-05-22T16:51:49.850Z,45.46
2019-05-22T16:54:21.198Z,45.54
